Terminal Aerodrome Forecast
Issued by NWS Twin Cities, MN

Home | Current Version | Previous Version | Text Only | Print | Product List | Glossary Off
Versions: 1 2 3 4 5 6 7 8 9 10 11 12 13 14

000
FTUS43 KMPX 211100
TAFEAU
TAF
KEAU 211131Z 2112/2212 VRB02KT 5SM BR VCSH FEW005 OVC070
      TEMPO 2112/2116 1 1/2SM -SHRA BR BKN008 OVC050
     FM211600 30010KT P6SM SCT010 BKN070
     FM211900 32015G23KT P6SM SKC
     FM220200 33008KT P6SM SKC=

USA.gov is the U.S. government's official web portal to all federal, state and local government web resources and services.